Enumclaw, WA

4:34 AM PDT on September 03, 2015 (GMT -0700)
Enumclaw City Hall | | Change Station
CLOSE
Current Station
Personal Weather Station
Location: Enumclaw, WA
Elevation: 761 ft
Nearby Weather Stations

Elev 761 ft 47.20 °N, 121.99 °W | Updated 21 seconds ago

Mostly Cloudy
Mostly Cloudy
49.2 °F
Feels Like 49 °F
N
0.0
Wind Variable Wind from SSE
Gusts 0.0 mph

Today
High -- | Low -- °F
--% Chance of Precip.
Yesterday
High -- | Low -- °F
Precip. -- in
6:29 AM 7:44 PM
Waning Gibbous, 71% visible
Pressure 29.99 in
Visibility 10.0 miles
Clouds Overcast 2200 ft
Windchill 49 °F
Dew Point 46 °F
Humidity 89%
Rainfall 0.00 in
Snow Depth Not available.
UV 0 out of 12
Pollen 1.50 out of 12
Air Quality Not available.
Flu Activity Not available.
METAR KPLU 031115Z AUTO 00000KT 10SM OVC022 10/10 A2999 RMK AO2
Pressure 29.99 in
Visibility 10.0 miles
Clouds Overcast 2200 ft
Windchill 49 °F
Dew Point 46 °F
Humidity 89%
Rainfall 0.00 in
Snow Depth Not available.
UV 0 out of 12
Pollen 1.50 out of 12
Air Quality Not available.
Flu Activity Not available.
METAR KPLU 031115Z AUTO 00000KT 10SM OVC022 10/10 A2999 RMK AO2

10-Day Weather Forecast

×

Almanac

Astronomy

Sep. 03, 2015 Rise Set
Actual Time
Civil Twilight
Nautical Twilight
Astronomical Twilight
Moon
Length of Visible Light
Length of Day
Tomorrow will be .
, % of the Moon is Illuminated

Today's Extremes

State Highs State Lows

Community

WunderPhotos

Upload Photos

1,851,933 photos uploaded!

WunderBlogs® & News

Nearby

Air Quality

  Air Quality AQ Index Pollutant
Not available.

Snow Depth

Station Depth Elevation

Earthquake Activity

City Distance Mag. Time & Date
Minimum magnitude displayed is 2.5.

Coastal Water Temperatures

Place Temperature

Stations

Nearby Weather Stations

Station Location Temp. Windchill Dew Point Humidity Wind Precip. Elev Updated Type